Terminal Aerodrome Forecast
Issued by NWS

Home | Current Version | Previous Version | Text Only | Print | Product List | Glossary Off
Versions: 1 2 3 4 5 6 7 8 9 10 11 12 13 14

477
FTUS43 KOAX 141511 AAA
TAFCDR
TAF AMD
KCDR 141511Z 1415/1512 35011KT 4SM -SHRA BKN025 BKN050
     FM141700 32020G28KT 6SM -SHRA BKN025 OVC050
     FM142200 31015G25KT P6SM VCSH BKN050 BKN100
     FM150000 27007KT P6SM SKC=

USA.gov is the U.S. government's official web portal to all federal, state and local government web resources and services.